createdAt,value
2018-02-27T00:01:49.376Z,7.03
2018-02-27T00:04:17.603Z,7.20
2018-02-27T00:06:47.380Z,9.23
2018-02-27T00:14:25.213Z,6.78
2018-02-27T00:16:54.208Z,6.43
2018-02-27T00:19:23.200Z,5.45
2018-02-27T00:21:51.575Z,4.82
2018-02-27T00:24:19.812Z,5.28
2018-02-27T00:26:48.041Z,5.00
2018-02-27T00:29:17.786Z,5.53
2018-02-27T00:31:47.561Z,6.00
2018-02-27T00:34:15.787Z,7.40
2018-02-27T00:36:45.038Z,5.85
2018-02-27T00:39:14.028Z,6.20
2018-02-27T00:41:42.257Z,5.68
2018-02-27T00:44:12.115Z,5.68
2018-02-27T00:46:40.984Z,6.43
2018-02-27T00:49:09.211Z,10.80
2018-02-27T00:51:39.360Z,6.15
2018-02-27T00:54:08.725Z,6.55
2018-02-27T00:56:37.340Z,6.25
2018-02-27T00:59:06.215Z,6.35
2018-02-27T01:01:35.207Z,8.23
2018-02-27T01:04:03.424Z,6.90
2018-02-27T01:06:33.412Z,7.32
2018-02-27T01:09:01.505Z,6.40
2018-02-27T01:11:29.735Z,5.95
2018-02-27T01:13:58.660Z,8.50
2018-02-27T01:16:28.235Z,6.12
2018-02-27T01:18:57.472Z,8.57
2018-02-27T01:21:25.857Z,7.12
2018-02-27T01:23:54.864Z,6.57
2018-02-27T01:26:23.076Z,6.90
2018-02-27T01:28:53.217Z,7.65
2018-02-27T01:31:22.216Z,6.07
2018-02-27T01:33:50.443Z,5.95
2018-02-27T01:36:20.189Z,7.03
2018-02-27T01:38:48.920Z,8.07
2018-02-27T01:41:17.144Z,5.80
2018-02-27T01:43:50.412Z,7.78
2018-02-27T01:46:19.416Z,11.65
2018-02-27T01:48:48.780Z,7.18
2018-02-27T01:51:19.308Z,6.75
2018-02-27T01:53:48.292Z,6.50
2018-02-27T01:56:18.024Z,6.20
2018-02-27T01:58:46.980Z,7.40
2018-02-27T02:01:15.596Z,7.72
2018-02-27T02:03:44.592Z,7.15
2018-02-27T02:06:13.215Z,6.55
2018-02-27T02:08:42.212Z,8.38
2018-02-27T02:11:10.443Z,7.03
2018-02-27T02:13:40.582Z,6.45
2018-02-27T02:16:10.316Z,7.22
2018-02-27T02:18:39.907Z,6.68
2018-02-27T02:21:09.440Z,8.43
2018-02-27T02:23:37.670Z,7.03
2018-02-27T02:26:05.888Z,7.40
2018-02-27T02:28:35.720Z,10.60
2018-02-27T02:31:04.729Z,7.75
2018-02-27T02:33:33.712Z,6.82
2018-02-27T02:38:36.605Z,9.60
2018-02-27T02:41:05.460Z,7.45
2018-02-27T02:43:33.684Z,7.37
2018-02-27T02:46:03.101Z,6.57
2018-02-27T02:48:32.088Z,8.48
2018-02-27T02:51:00.321Z,8.82
2018-02-27T02:53:28.836Z,8.23
2018-02-27T02:55:57.061Z,5.95
2018-02-27T02:58:25.288Z,8.10
2018-02-27T03:00:54.424Z,6.95
2018-02-27T03:03:22.653Z,6.32
2018-02-27T03:05:52.227Z,6.80
2018-02-27T03:08:20.545Z,8.63
2018-02-27T03:10:49.899Z,8.45
2018-02-27T03:16:19.840Z,6.78
2018-02-27T03:18:48.060Z,6.18
2018-02-27T03:21:17.641Z,7.25
2018-02-27T03:23:45.835Z,8.27
2018-02-27T03:26:14.059Z,6.87
2018-02-27T03:28:43.792Z,7.50
2018-02-27T03:31:12.509Z,7.25
2018-02-27T03:33:40.728Z,6.12
2018-02-27T03:36:09.720Z,6.03
2018-02-27T03:38:38.157Z,8.50
2018-02-27T03:41:07.412Z,7.37
2018-02-27T03:43:37.013Z,6.50
2018-02-27T03:46:06.857Z,16.87
2018-02-27T03:48:36.432Z,11.77
2018-02-27T03:51:04.536Z,9.77
2018-02-27T03:53:33.791Z,9.07
2018-02-27T03:56:03.520Z,9.82
2018-02-27T03:58:31.751Z,9.35
2018-02-27T04:03:36.641Z,7.93
2018-02-27T04:06:06.212Z,6.87
2018-02-27T04:08:34.308Z,7.28
2018-02-27T04:11:02.792Z,10.60
2018-02-27T04:13:31.411Z,8.20
2018-02-27T04:16:00.404Z,8.13
2018-02-27T04:18:30.248Z,6.93
2018-02-27T04:20:59.612Z,5.70
2018-02-27T04:23:27.840Z,7.15
2018-02-27T04:25:56.220Z,8.43
2018-02-27T04:28:24.433Z,6.97
2018-02-27T04:30:52.672Z,11.12
2018-02-27T04:35:57.904Z,6.37
2018-02-27T04:38:27.132Z,7.22
2018-02-27T04:40:55.355Z,6.78
2018-02-27T04:43:26.451Z,8.38
2018-02-27T04:45:54.668Z,7.28
2018-02-27T04:48:23.664Z,6.70
2018-02-27T04:50:52.204Z,8.90
2018-02-27T04:53:21.192Z,5.75
2018-02-27T04:55:49.419Z,5.93
2018-02-27T04:58:19.384Z,7.35
2018-02-27T05:00:48.256Z,9.48
2018-02-27T05:03:16.480Z,6.05
2018-02-27T05:05:45.892Z,5.30
2018-02-27T05:08:15.467Z,8.48
2018-02-27T05:10:44.701Z,5.37
2018-02-27T05:13:13.184Z,6.68
2018-02-27T05:15:42.164Z,5.95
2018-02-27T05:18:10.392Z,7.07
2018-02-27T05:20:39.828Z,7.70
2018-02-27T05:23:09.556Z,6.65
2018-02-27T05:25:38.543Z,9.70
2018-02-27T05:28:07.396Z,6.15
2018-02-27T05:30:36.970Z,9.27
2018-02-27T05:33:05.076Z,5.70
2018-02-27T05:35:33.936Z,9.38
2018-02-27T05:38:03.300Z,9.80
2018-02-27T05:40:32.879Z,6.87
2018-02-27T05:43:01.443Z,6.10
2018-02-27T05:45:33.536Z,5.37
2018-02-27T05:48:03.159Z,6.50
2018-02-27T05:50:32.607Z,16.85
2018-02-27T05:53:02.248Z,7.43
2018-02-27T05:55:30.788Z,7.25
2018-02-27T05:58:00.153Z,6.47
2018-02-27T06:00:28.383Z,10.77
2018-02-27T06:02:57.036Z,8.20
2018-02-27T06:05:26.616Z,6.60
2018-02-27T06:07:54.720Z,7.20
2018-02-27T06:10:23.094Z,6.18
2018-02-27T06:12:51.312Z,6.57
2018-02-27T06:15:19.532Z,6.97
2018-02-27T06:17:48.083Z,5.87
2018-02-27T06:20:17.080Z,6.25
2018-02-27T06:22:45.339Z,7.20
2018-02-27T06:25:13.813Z,7.65
2018-02-27T06:27:42.057Z,6.10
2018-02-27T06:30:10.277Z,6.65
2018-02-27T06:32:38.651Z,6.00
2018-02-27T06:35:06.872Z,7.57
2018-02-27T06:37:35.864Z,6.53
2018-02-27T06:40:04.545Z,8.98
2018-02-27T06:42:33.904Z,9.70
2018-02-27T06:45:02.133Z,12.02
2018-02-27T06:47:31.943Z,6.47
2018-02-27T06:50:01.515Z,7.80
2018-02-27T06:52:29.608Z,7.25
2018-02-27T06:54:58.071Z,6.93
2018-02-27T06:57:27.436Z,7.10
2018-02-27T06:59:55.661Z,7.93
2018-02-27T07:02:25.210Z,9.38
2018-02-27T07:04:54.207Z,6.75
2018-02-27T07:07:22.434Z,7.05
2018-02-27T07:09:51.504Z,5.70
2018-02-27T07:12:19.724Z,7.65
2018-02-27T07:14:47.943Z,8.00
2018-02-27T07:17:18.096Z,9.88
2018-02-27T07:19:47.825Z,9.82
2018-02-27T07:22:17.404Z,10.88
2018-02-27T07:24:47.129Z,6.30
2018-02-27T07:27:15.980Z,8.15
2018-02-27T07:29:44.203Z,8.68
2018-02-27T07:32:13.544Z,6.90
2018-02-27T07:34:42.533Z,6.57
2018-02-27T07:37:10.756Z,8.80
2018-02-27T07:39:40.752Z,7.65
2018-02-27T07:42:08.980Z,8.35
2018-02-27T07:44:37.203Z,7.65
2018-02-27T07:47:07.356Z,13.32
2018-02-27T07:49:36.492Z,7.57
2018-02-27T07:52:05.891Z,10.27
2018-02-27T07:54:35.660Z,9.70
2018-02-27T07:57:03.889Z,12.18
2018-02-27T07:59:32.112Z,8.32
2018-02-27T08:02:00.496Z,7.00
2018-02-27T08:04:28.720Z,8.32
2018-02-27T08:06:56.936Z,7.62
2018-02-27T08:09:26.885Z,7.45
2018-02-27T08:11:54.977Z,7.30
2018-02-27T08:14:23.968Z,9.77
2018-02-27T08:16:52.600Z,19.30
2018-02-27T08:19:22.331Z,7.60
2018-02-27T08:21:51.324Z,8.05
2018-02-27T08:24:21.183Z,8.95
2018-02-27T08:26:49.404Z,8.80
2018-02-27T08:29:18.031Z,18.98
2018-02-27T08:31:47.029Z,10.60
2018-02-27T08:34:16.012Z,7.20
2018-02-27T08:36:44.239Z,8.48
2018-02-27T08:39:13.473Z,5.93
2018-02-27T08:41:43.212Z,11.80
2018-02-27T08:44:12.618Z,8.10
2018-02-27T08:46:41.817Z,9.23
2018-02-27T08:49:10.036Z,7.27
2018-02-27T08:51:38.700Z,6.23
2018-02-27T08:54:07.071Z,6.57
2018-02-27T08:56:36.055Z,6.37
2018-02-27T08:59:04.280Z,5.80
2018-02-27T09:01:33.516Z,5.73
2018-02-27T09:04:02.512Z,7.93
2018-02-27T09:06:30.740Z,9.93
2018-02-27T09:09:00.296Z,10.90
2018-02-27T09:11:28.528Z,9.40
2018-02-27T09:13:56.757Z,5.63
2018-02-27T09:16:25.280Z,5.23
2018-02-27T09:18:54.268Z,5.50
2018-02-27T09:21:22.500Z,8.27
2018-02-27T09:23:51.540Z,7.40
2018-02-27T09:26:20.528Z,5.50
2018-02-27T09:28:49.512Z,5.53
2018-02-27T09:31:18.784Z,7.27
2018-02-27T09:33:46.940Z,6.73
2018-02-27T09:36:15.168Z,7.13
2018-02-27T09:38:44.194Z,6.07
2018-02-27T09:41:13.180Z,5.23
2018-02-27T09:43:41.444Z,5.87
2018-02-27T09:46:10.636Z,6.90
2018-02-27T09:48:39.628Z,5.27
2018-02-27T09:51:09.360Z,4.87
2018-02-27T09:53:38.016Z,5.43
2018-02-27T09:56:06.233Z,7.70
2018-02-27T09:58:34.461Z,4.80
2018-02-27T10:01:03.117Z,5.13
2018-02-27T10:03:32.109Z,8.67
2018-02-27T10:06:00.328Z,5.63
2018-02-27T10:08:29.644Z,6.37
2018-02-27T10:10:57.868Z,6.20
2018-02-27T10:13:26.092Z,5.77
2018-02-27T10:15:54.569Z,8.40
2018-02-27T10:18:23.556Z,5.70
2018-02-27T10:20:52.180Z,5.83
2018-02-27T10:23:22.647Z,4.73
2018-02-27T10:25:52.005Z,7.70
2018-02-27T10:28:20.228Z,7.07
2018-02-27T10:30:48.620Z,5.27
2018-02-27T10:33:16.823Z,5.73
2018-02-27T10:35:46.395Z,6.37
2018-02-27T10:38:15.740Z,7.13
2018-02-27T10:40:44.739Z,5.53
2018-02-27T10:43:12.956Z,5.00
2018-02-27T10:45:42.389Z,4.57
2018-02-27T10:48:11.408Z,5.80
2018-02-27T10:50:40.396Z,5.03
2018-02-27T10:53:10.356Z,6.97
2018-02-27T10:55:39.621Z,5.50
2018-02-27T10:58:09.348Z,7.80
2018-02-27T11:00:43.352Z,11.83
2018-02-27T11:03:12.345Z,6.83
2018-02-27T11:05:40.568Z,6.63
2018-02-27T11:08:10.841Z,4.67
2018-02-27T11:10:40.083Z,4.53
2018-02-27T11:13:08.304Z,5.13
2018-02-27T11:15:36.828Z,4.80
2018-02-27T11:18:05.053Z,5.20
2018-02-27T11:20:34.409Z,5.50
2018-02-27T11:23:03.508Z,7.73
2018-02-27T11:25:32.857Z,4.93
2018-02-27T11:28:01.090Z,4.40
2018-02-27T11:30:30.024Z,4.10
2018-02-27T11:32:59.752Z,3.87
2018-02-27T11:35:27.981Z,3.80
2018-02-27T11:37:58.448Z,6.70
2018-02-27T11:40:27.436Z,4.10
2018-02-27T11:42:55.703Z,4.30
2018-02-27T11:45:24.857Z,4.40
2018-02-27T11:47:54.429Z,8.93
2018-02-27T11:50:24.032Z,4.13
2018-02-27T11:55:53.220Z,4.53
2018-02-27T11:58:22.268Z,4.17
2018-02-27T12:00:50.496Z,5.53
2018-02-27T12:03:19.829Z,4.33
2018-02-27T12:05:48.461Z,3.87
2018-02-27T12:08:18.084Z,4.93
2018-02-27T12:10:48.481Z,4.70
2018-02-27T12:13:17.800Z,8.33
2018-02-27T12:15:46.028Z,4.70
2018-02-27T12:18:15.000Z,7.00
2018-02-27T12:20:44.571Z,5.27
2018-02-27T12:23:13.104Z,4.07
2018-02-27T12:25:42.442Z,4.47
2018-02-27T12:28:12.173Z,4.03
2018-02-27T12:30:40.402Z,4.87
2018-02-27T12:33:08.837Z,5.27
2018-02-27T12:35:37.829Z,5.17
2018-02-27T12:38:06.061Z,6.13
2018-02-27T12:40:38.209Z,7.53
2018-02-27T12:43:06.438Z,8.43
2018-02-27T12:45:35.424Z,8.03
2018-02-27T12:48:04.904Z,4.87
2018-02-27T12:50:33.144Z,5.57
2018-02-27T12:53:01.385Z,6.27
2018-02-27T12:55:31.148Z,10.40
2018-02-27T12:57:59.645Z,9.00
2018-02-27T13:00:29.223Z,5.27
2018-02-27T13:02:58.931Z,7.43
2018-02-27T13:05:28.392Z,7.00
2018-02-27T13:07:57.840Z,6.13
2018-02-27T13:10:27.501Z,15.07
2018-02-27T13:12:55.604Z,5.13
2018-02-27T13:15:23.828Z,5.30
2018-02-27T13:17:52.455Z,5.50
2018-02-27T13:20:21.996Z,5.03
2018-02-27T13:22:50.097Z,6.80
2018-02-27T13:25:18.488Z,6.13
2018-02-27T13:27:46.716Z,6.60
2018-02-27T13:30:14.940Z,4.83
2018-02-27T13:32:43.877Z,5.43
2018-02-27T13:35:12.496Z,6.50
2018-02-27T13:37:41.116Z,5.00
2018-02-27T13:40:10.208Z,5.47
2018-02-27T13:42:39.205Z,5.53
2018-02-27T13:45:07.440Z,6.93
2018-02-27T13:47:37.679Z,5.43
2018-02-27T13:50:06.677Z,5.33
2018-02-27T13:52:34.901Z,7.93
2018-02-27T13:55:04.733Z,6.00
2018-02-27T13:57:33.719Z,5.10
2018-02-27T14:00:02.304Z,6.53
2018-02-27T14:05:05.061Z,5.43
2018-02-27T14:07:33.284Z,8.53
2018-02-27T14:10:01.504Z,5.80
2018-02-27T14:12:29.982Z,6.07
2018-02-27T14:14:58.199Z,5.00
2018-02-27T14:17:26.419Z,5.70
2018-02-27T14:19:55.660Z,4.20
2018-02-27T14:22:24.653Z,4.43
2018-02-27T14:24:52.875Z,4.37
2018-02-27T14:27:21.904Z,5.40
2018-02-27T14:29:50.895Z,4.90
2018-02-27T14:32:19.121Z,4.67
2018-02-27T14:34:47.384Z,5.37
2018-02-27T14:37:16.951Z,5.37
2018-02-27T14:39:46.409Z,4.90
2018-02-27T14:42:17.656Z,5.23
2018-02-27T14:44:47.107Z,5.20
2018-02-27T14:47:15.245Z,5.13
2018-02-27T14:49:44.981Z,5.40
2018-02-27T14:52:14.001Z,4.70
2018-02-27T14:54:42.228Z,7.15
2018-02-27T14:57:11.196Z,5.05
2018-02-27T14:59:40.192Z,4.68
2018-02-27T15:02:08.628Z,4.82
2018-02-27T15:04:37.092Z,4.10
2018-02-27T15:07:05.347Z,8.07
2018-02-27T15:09:33.616Z,4.75
2018-02-27T15:12:02.820Z,7.25
2018-02-27T15:14:31.049Z,5.40
2018-02-27T15:16:59.302Z,5.32
2018-02-27T15:19:28.844Z,5.97
2018-02-27T15:21:57.828Z,6.95
2018-02-27T15:24:27.240Z,5.28
2018-02-27T15:26:55.800Z,4.70
2018-02-27T15:29:24.812Z,5.00
2018-02-27T15:31:53.840Z,5.40
2018-02-27T15:34:23.144Z,5.20
2018-02-27T15:36:52.885Z,5.30
2018-02-27T15:39:22.485Z,4.57
2018-02-27T15:41:50.938Z,6.05
2018-02-27T15:44:20.297Z,4.43
2018-02-27T15:46:48.559Z,4.55
2018-02-27T15:49:18.504Z,4.97
2018-02-27T15:51:47.966Z,3.97
2018-02-27T15:54:17.193Z,4.40
2018-02-27T15:56:46.028Z,4.97
2018-02-27T15:59:15.471Z,4.95
2018-02-27T16:01:43.713Z,4.90
2018-02-27T16:04:13.695Z,7.90
2018-02-27T16:06:41.912Z,4.72
2018-02-27T16:09:11.338Z,6.43
2018-02-27T16:11:39.776Z,4.05
2018-02-27T16:14:07.996Z,4.57
2018-02-27T16:16:37.903Z,6.75
2018-02-27T16:19:07.972Z,4.25
2018-02-27T16:21:37.676Z,5.22
2018-02-27T16:24:05.792Z,4.95
2018-02-27T16:26:34.291Z,4.35
2018-02-27T16:29:02.506Z,5.65
2018-02-27T16:31:32.240Z,5.93
2018-02-27T16:34:00.767Z,4.50
2018-02-27T16:36:29.749Z,9.95
2018-02-27T16:38:57.964Z,6.93
2018-02-27T16:41:28.559Z,4.45
2018-02-27T16:43:57.804Z,14.02
2018-02-27T16:46:27.384Z,3.50
2018-02-27T16:48:56.008Z,7.72
2018-02-27T16:51:25.421Z,5.35
2018-02-27T16:53:55.136Z,5.62
2018-02-27T16:56:23.793Z,4.40
2018-02-27T16:58:52.432Z,7.55
2018-02-27T17:01:20.689Z,6.07
2018-02-27T17:03:51.409Z,5.80
2018-02-27T17:06:20.669Z,5.87
2018-02-27T17:08:48.936Z,5.32
2018-02-27T17:11:19.899Z,6.97
2018-02-27T17:13:49.467Z,4.50
2018-02-27T17:16:18.336Z,6.70
2018-02-27T17:18:47.624Z,7.47
2018-02-27T17:21:17.488Z,9.18
2018-02-27T17:23:45.705Z,7.90
2018-02-27T17:26:15.385Z,6.45
2018-02-27T17:28:43.605Z,8.05
2018-02-27T17:31:12.960Z,7.05
2018-02-27T17:33:42.564Z,6.60
2018-02-27T17:36:11.176Z,4.68
2018-02-27T17:38:39.400Z,6.87
2018-02-27T17:41:07.972Z,6.80
2018-02-27T17:43:37.797Z,5.32
2018-02-27T17:46:06.103Z,6.65
2018-02-27T17:48:35.584Z,5.80
2018-02-27T17:51:05.165Z,6.60
2018-02-27T17:53:34.305Z,6.47
2018-02-27T17:56:02.546Z,6.12
2018-02-27T17:58:33.426Z,7.28
2018-02-27T18:01:03.210Z,6.70
2018-02-27T18:03:32.570Z,6.45
2018-02-27T18:06:02.280Z,6.28
2018-02-27T18:08:33.051Z,6.80
2018-02-27T18:11:02.639Z,9.02
2018-02-27T18:13:30.740Z,7.22
2018-02-27T18:15:59.376Z,6.12
2018-02-27T18:18:30.682Z,6.57
2018-02-27T18:21:01.068Z,6.10
2018-02-27T18:23:33.312Z,6.30
2018-02-27T18:26:02.648Z,6.10
2018-02-27T18:28:32.023Z,6.80
2018-02-27T18:31:00.243Z,6.50
2018-02-27T18:33:30.996Z,7.05
2018-02-27T18:36:01.864Z,6.90
2018-02-27T18:38:31.216Z,8.02
2018-02-27T18:41:00.197Z,8.50
2018-02-27T18:43:29.128Z,8.10
2018-02-27T18:45:58.488Z,12.32
2018-02-27T18:48:28.068Z,11.43
2018-02-27T18:50:57.456Z,7.45
2018-02-27T18:53:25.681Z,5.93
2018-02-27T18:55:53.895Z,7.30
2018-02-27T18:58:22.434Z,7.40
2018-02-27T19:00:52.308Z,7.40
2018-02-27T19:03:21.924Z,10.15
2018-02-27T19:05:52.832Z,8.80
2018-02-27T19:08:22.524Z,7.00
2018-02-27T19:10:52.916Z,8.25
2018-02-27T19:13:22.268Z,7.32
2018-02-27T19:15:50.493Z,8.77
2018-02-27T19:18:20.337Z,7.30
2018-02-27T19:20:48.999Z,8.43
2018-02-27T19:23:17.975Z,7.65
2018-02-27T19:25:47.902Z,7.53
2018-02-27T19:28:16.000Z,8.63
2018-02-27T19:30:45.173Z,7.90
2018-02-27T19:33:13.996Z,7.60
2018-02-27T19:35:42.608Z,8.75
2018-02-27T19:38:11.290Z,13.77
2018-02-27T19:40:39.864Z,13.90
2018-02-27T19:43:11.219Z,9.45
2018-02-27T19:45:39.445Z,8.52
2018-02-27T19:48:08.414Z,7.40
2018-02-27T19:50:36.758Z,8.32
2018-02-27T19:53:06.430Z,9.20
2018-02-27T19:55:35.414Z,10.82
2018-02-27T19:58:03.660Z,15.00
2018-02-27T20:00:32.279Z,9.57
2018-02-27T20:03:01.572Z,9.50
2018-02-27T20:05:29.796Z,8.80
2018-02-27T20:07:58.068Z,9.43
2018-02-27T20:10:26.452Z,8.23
2018-02-27T20:12:56.502Z,7.68
2018-02-27T20:15:24.917Z,8.93
2018-02-27T20:18:02.167Z,9.85
2018-02-27T20:20:31.048Z,11.05
2018-02-27T20:23:07.097Z,8.10
2018-02-27T20:25:35.321Z,10.18
2018-02-27T20:28:04.685Z,11.05
2018-02-27T20:30:33.164Z,8.00
2018-02-27T20:33:02.379Z,8.07
2018-02-27T20:35:31.369Z,10.20
2018-02-27T20:38:00.776Z,9.02
2018-02-27T20:40:29.408Z,11.32
2018-02-27T20:42:57.632Z,8.93
2018-02-27T20:45:27.803Z,9.52
2018-02-27T20:47:57.259Z,8.95
2018-02-27T20:50:25.778Z,8.73
2018-02-27T20:52:54.528Z,10.10
2018-02-27T20:55:24.260Z,9.65
2018-02-27T20:57:52.476Z,9.98
2018-02-27T21:02:57.796Z,12.80
2018-02-27T21:05:27.404Z,13.20
2018-02-27T21:07:55.628Z,10.63
2018-02-27T21:10:24.235Z,14.73
2018-02-27T21:12:52.852Z,12.70
2018-02-27T21:15:24.589Z,16.25
2018-02-27T21:17:53.592Z,12.90
2018-02-27T21:20:23.459Z,17.60
2018-02-27T21:22:51.208Z,13.40
2018-02-27T21:25:21.219Z,18.10
2018-02-27T21:27:49.725Z,18.25
2018-02-27T21:30:19.076Z,15.93
2018-02-27T21:32:48.900Z,17.25
2018-02-27T21:35:17.777Z,13.98
2018-02-27T21:37:46.011Z,12.45
2018-02-27T21:40:14.716Z,14.27
2018-02-27T21:42:42.948Z,11.12
2018-02-27T21:45:11.176Z,11.38
2018-02-27T21:47:42.992Z,11.70
2018-02-27T21:50:12.736Z,12.05
2018-02-27T21:52:40.970Z,12.15
2018-02-27T21:55:09.892Z,11.88
2018-02-27T21:57:38.902Z,18.98
2018-02-27T22:00:07.896Z,12.23
2018-02-27T22:02:36.656Z,11.40
2018-02-27T22:05:06.180Z,11.52
2018-02-27T22:07:34.300Z,13.00
2018-02-27T22:10:03.765Z,12.20
2018-02-27T22:12:32.393Z,13.27
2018-02-27T22:15:00.619Z,12.70
2018-02-27T22:17:30.824Z,12.40
2018-02-27T22:19:59.057Z,11.93
2018-02-27T22:22:28.432Z,10.63
2018-02-27T22:24:56.900Z,11.52
2018-02-27T22:27:25.132Z,12.20
2018-02-27T22:29:53.360Z,13.73
2018-02-27T22:32:22.192Z,15.20
2018-02-27T22:34:50.435Z,12.07
2018-02-27T22:37:18.664Z,12.80
2018-02-27T22:39:48.260Z,11.65
2018-02-27T22:42:17.263Z,12.85
2018-02-27T22:44:45.500Z,14.40
2018-02-27T22:47:15.349Z,15.48
2018-02-27T22:49:44.352Z,13.35
2018-02-27T22:52:12.599Z,13.25
2018-02-27T22:54:45.585Z,14.45
2018-02-27T22:57:14.216Z,14.13
2018-02-27T22:59:42.461Z,14.87
2018-02-27T23:02:12.468Z,13.62
2018-02-27T23:04:42.567Z,15.02
2018-02-27T23:07:10.681Z,13.85
2018-02-27T23:09:41.039Z,17.55
2018-02-27T23:12:10.421Z,17.00
2018-02-27T23:14:38.659Z,16.23
2018-02-27T23:17:08.064Z,20.05
2018-02-27T23:19:39.180Z,15.32
2018-02-27T23:22:07.416Z,16.23
2018-02-27T23:24:40.304Z,15.38
2018-02-27T23:27:08.989Z,14.63
2018-02-27T23:29:37.275Z,16.27
2018-02-27T23:32:07.229Z,14.57
2018-02-27T23:34:37.253Z,16.80
2018-02-27T23:37:05.488Z,22.02
2018-02-27T23:39:34.130Z,22.35
2018-02-27T23:42:02.364Z,14.65
2018-02-27T23:44:30.648Z,21.50
2018-02-27T23:54:41.000Z,17.62
2018-02-27T23:57:10.374Z,15.30
2018-02-27T23:59:38.604Z,22.30
